Terminal Aerodrome Forecast
Issued by NWS

Home | Current Version | Previous Version | Text Only | Print | Product List | Glossary On
Versions: 1 2 3 4 5 6 7 8 9 10 11 12 13 14
127
FTUS45 KTFX 050147 AAA
TAFGTF
TAF AMD
KGTF 050147Z 0502/0524 28011KT P6SM SCT150
     FM050700 21010KT P6SM BKN150
     FM052100 25016KT P6SM VCSH SCT080 BKN100=

USA.gov is the U.S. government's official web portal to all federal, state and local government web resources and services.